sensor_id;sensor_type;location;lat;lon;timestamp;P1;durP1;ratioP1;P2;durP2;ratioP2
2598;SDS011;1309;48.810;8.954;2023-04-25T00:01:29;5.63;;;2.80;;
2598;SDS011;1309;48.810;8.954;2023-04-25T00:03:59;3.47;;;2.17;;
2598;SDS011;1309;48.810;8.954;2023-04-25T00:06:29;3.30;;;2.10;;
2598;SDS011;1309;48.810;8.954;2023-04-25T00:08:58;3.77;;;2.00;;
2598;SDS011;1309;48.810;8.954;2023-04-25T00:11:26;3.87;;;2.50;;
2598;SDS011;1309;48.810;8.954;2023-04-25T00:13:54;3.87;;;2.50;;
2598;SDS011;1309;48.810;8.954;2023-04-25T00:16:22;3.60;;;2.40;;
2598;SDS011;1309;48.810;8.954;2023-04-25T00:18:51;3.30;;;2.83;;
2598;SDS011;1309;48.810;8.954;2023-04-25T00:21:29;4.03;;;2.10;;
2598;SDS011;1309;48.810;8.954;2023-04-25T00:23:59;6.07;;;2.13;;
2598;SDS011;1309;48.810;8.954;2023-04-25T00:26:28;5.33;;;2.50;;
2598;SDS011;1309;48.810;8.954;2023-04-25T00:29:02;2.80;;;2.20;;
2598;SDS011;1309;48.810;8.954;2023-04-25T00:31:33;3.90;;;2.20;;
2598;SDS011;1309;48.810;8.954;2023-04-25T00:34:01;3.43;;;2.30;;
2598;SDS011;1309;48.810;8.954;2023-04-25T00:36:30;5.53;;;2.70;;
2598;SDS011;1309;48.810;8.954;2023-04-25T00:39:01;3.30;;;1.80;;
2598;SDS011;1309;48.810;8.954;2023-04-25T00:41:32;3.37;;;2.07;;
2598;SDS011;1309;48.810;8.954;2023-04-25T00:44:00;4.90;;;2.80;;
2598;SDS011;1309;48.810;8.954;2023-04-25T00:46:33;4.70;;;2.00;;
2598;SDS011;1309;48.810;8.954;2023-04-25T00:49:02;4.10;;;2.00;;
2598;SDS011;1309;48.810;8.954;2023-04-25T00:51:31;3.17;;;2.00;;
2598;SDS011;1309;48.810;8.954;2023-04-25T00:54:00;4.13;;;2.27;;
2598;SDS011;1309;48.810;8.954;2023-04-25T00:56:31;3.50;;;2.17;;
2598;SDS011;1309;48.810;8.954;2023-04-25T00:58:59;3.83;;;2.20;;
2598;SDS011;1309;48.810;8.954;2023-04-25T01:01:27;5.03;;;2.50;;
2598;SDS011;1309;48.810;8.954;2023-04-25T01:03:59;5.90;;;2.67;;
2598;SDS011;1309;48.810;8.954;2023-04-25T01:06:33;5.50;;;2.47;;
2598;SDS011;1309;48.810;8.954;2023-04-25T01:09:01;3.97;;;2.00;;
2598;SDS011;1309;48.810;8.954;2023-04-25T01:11:30;4.03;;;2.57;;
2598;SDS011;1309;48.810;8.954;2023-04-25T01:13:58;4.37;;;2.33;;
2598;SDS011;1309;48.810;8.954;2023-04-25T01:16:28;4.37;;;2.60;;
2598;SDS011;1309;48.810;8.954;2023-04-25T01:18:58;5.23;;;2.80;;
2598;SDS011;1309;48.810;8.954;2023-04-25T01:21:28;4.50;;;2.73;;
2598;SDS011;1309;48.810;8.954;2023-04-25T01:24:01;4.80;;;2.20;;
2598;SDS011;1309;48.810;8.954;2023-04-25T01:26:30;3.70;;;2.23;;
2598;SDS011;1309;48.810;8.954;2023-04-25T01:28:59;5.43;;;2.77;;
2598;SDS011;1309;48.810;8.954;2023-04-25T01:31:28;3.80;;;2.47;;
2598;SDS011;1309;48.810;8.954;2023-04-25T01:33:56;4.00;;;3.07;;
2598;SDS011;1309;48.810;8.954;2023-04-25T01:36:26;4.90;;;2.90;;
2598;SDS011;1309;48.810;8.954;2023-04-25T01:38:58;6.80;;;2.80;;
2598;SDS011;1309;48.810;8.954;2023-04-25T01:41:27;3.70;;;2.40;;
2598;SDS011;1309;48.810;8.954;2023-04-25T01:44:01;3.53;;;2.60;;
2598;SDS011;1309;48.810;8.954;2023-04-25T01:46:32;4.00;;;2.33;;
2598;SDS011;1309;48.810;8.954;2023-04-25T01:49:02;6.70;;;3.00;;
2598;SDS011;1309;48.810;8.954;2023-04-25T01:51:32;6.20;;;2.27;;
2598;SDS011;1309;48.810;8.954;2023-04-25T01:54:03;4.10;;;2.10;;
2598;SDS011;1309;48.810;8.954;2023-04-25T01:56:36;4.57;;;2.90;;
2598;SDS011;1309;48.810;8.954;2023-04-25T01:59:12;5.13;;;2.43;;
2598;SDS011;1309;48.810;8.954;2023-04-25T02:01:44;4.47;;;2.67;;
2598;SDS011;1309;48.810;8.954;2023-04-25T02:04:12;3.57;;;2.43;;
2598;SDS011;1309;48.810;8.954;2023-04-25T02:06:43;4.13;;;2.70;;
2598;SDS011;1309;48.810;8.954;2023-04-25T02:09:11;4.90;;;3.10;;
2598;SDS011;1309;48.810;8.954;2023-04-25T02:11:41;3.47;;;2.37;;
2598;SDS011;1309;48.810;8.954;2023-04-25T02:14:11;3.53;;;2.23;;
2598;SDS011;1309;48.810;8.954;2023-04-25T02:16:43;7.17;;;2.60;;
2598;SDS011;1309;48.810;8.954;2023-04-25T02:19:14;5.77;;;2.40;;
2598;SDS011;1309;48.810;8.954;2023-04-25T02:21:43;4.97;;;2.30;;
2598;SDS011;1309;48.810;8.954;2023-04-25T02:24:12;3.80;;;3.03;;
2598;SDS011;1309;48.810;8.954;2023-04-25T02:26:42;3.80;;;2.37;;
2598;SDS011;1309;48.810;8.954;2023-04-25T02:29:11;3.73;;;2.00;;
2598;SDS011;1309;48.810;8.954;2023-04-25T02:31:38;5.17;;;2.70;;
2598;SDS011;1309;48.810;8.954;2023-04-25T02:34:06;4.13;;;2.90;;
2598;SDS011;1309;48.810;8.954;2023-04-25T02:36:37;4.27;;;3.40;;
2598;SDS011;1309;48.810;8.954;2023-04-25T02:39:27;3.97;;;2.43;;
2598;SDS011;1309;48.810;8.954;2023-04-25T02:41:56;3.80;;;2.70;;
2598;SDS011;1309;48.810;8.954;2023-04-25T02:44:29;6.40;;;2.40;;
2598;SDS011;1309;48.810;8.954;2023-04-25T02:46:57;7.40;;;2.93;;
2598;SDS011;1309;48.810;8.954;2023-04-25T02:49:25;3.60;;;2.43;;
2598;SDS011;1309;48.810;8.954;2023-04-25T02:51:54;4.67;;;2.80;;
2598;SDS011;1309;48.810;8.954;2023-04-25T02:54:24;5.47;;;3.77;;
2598;SDS011;1309;48.810;8.954;2023-04-25T02:56:56;4.90;;;3.20;;
2598;SDS011;1309;48.810;8.954;2023-04-25T02:59:24;4.70;;;3.17;;
2598;SDS011;1309;48.810;8.954;2023-04-25T03:01:54;7.17;;;3.40;;
2598;SDS011;1309;48.810;8.954;2023-04-25T03:04:24;4.23;;;2.43;;
2598;SDS011;1309;48.810;8.954;2023-04-25T03:06:56;4.67;;;3.50;;
2598;SDS011;1309;48.810;8.954;2023-04-25T03:09:26;5.30;;;3.27;;
2598;SDS011;1309;48.810;8.954;2023-04-25T03:11:56;4.23;;;3.03;;
2598;SDS011;1309;48.810;8.954;2023-04-25T03:14:25;5.73;;;3.50;;
2598;SDS011;1309;48.810;8.954;2023-04-25T03:16:59;5.10;;;3.27;;
2598;SDS011;1309;48.810;8.954;2023-04-25T03:19:28;5.43;;;3.20;;
2598;SDS011;1309;48.810;8.954;2023-04-25T03:21:57;4.57;;;2.57;;
2598;SDS011;1309;48.810;8.954;2023-04-25T03:24:27;5.80;;;3.17;;
2598;SDS011;1309;48.810;8.954;2023-04-25T03:26:58;4.23;;;3.03;;
2598;SDS011;1309;48.810;8.954;2023-04-25T03:29:27;3.80;;;2.50;;
2598;SDS011;1309;48.810;8.954;2023-04-25T03:31:58;6.43;;;3.43;;
2598;SDS011;1309;48.810;8.954;2023-04-25T03:34:26;4.13;;;2.93;;
2598;SDS011;1309;48.810;8.954;2023-04-25T03:36:54;3.97;;;2.70;;
2598;SDS011;1309;48.810;8.954;2023-04-25T03:39:22;4.47;;;2.90;;
2598;SDS011;1309;48.810;8.954;2023-04-25T03:41:54;6.43;;;3.53;;
2598;SDS011;1309;48.810;8.954;2023-04-25T03:44:24;5.80;;;3.10;;
2598;SDS011;1309;48.810;8.954;2023-04-25T03:46:54;4.53;;;3.00;;
2598;SDS011;1309;48.810;8.954;2023-04-25T03:49:24;5.80;;;3.20;;
2598;SDS011;1309;48.810;8.954;2023-04-25T03:51:58;3.83;;;2.93;;
2598;SDS011;1309;48.810;8.954;2023-04-25T03:54:26;5.00;;;3.00;;
2598;SDS011;1309;48.810;8.954;2023-04-25T03:56:54;4.23;;;2.90;;
2598;SDS011;1309;48.810;8.954;2023-04-25T03:59:24;4.40;;;3.60;;
2598;SDS011;1309;48.810;8.954;2023-04-25T04:01:54;7.57;;;4.27;;
2598;SDS011;1309;48.810;8.954;2023-04-25T04:04:24;6.93;;;4.90;;
2598;SDS011;1309;48.810;8.954;2023-04-25T04:06:55;8.47;;;4.30;;
2598;SDS011;1309;48.810;8.954;2023-04-25T04:09:23;5.10;;;2.93;;
2598;SDS011;1309;48.810;8.954;2023-04-25T04:11:51;3.70;;;2.70;;
2598;SDS011;1309;48.810;8.954;2023-04-25T04:14:20;6.03;;;3.50;;
2598;SDS011;1309;48.810;8.954;2023-04-25T04:16:49;5.70;;;3.47;;
2598;SDS011;1309;48.810;8.954;2023-04-25T04:19:18;6.30;;;3.40;;
2598;SDS011;1309;48.810;8.954;2023-04-25T04:21:48;5.70;;;3.13;;
2598;SDS011;1309;48.810;8.954;2023-04-25T04:24:18;5.63;;;3.80;;
2598;SDS011;1309;48.810;8.954;2023-04-25T04:26:46;6.70;;;4.27;;
2598;SDS011;1309;48.810;8.954;2023-04-25T04:29:15;6.67;;;4.40;;
2598;SDS011;1309;48.810;8.954;2023-04-25T04:31:47;6.63;;;4.30;;
2598;SDS011;1309;48.810;8.954;2023-04-25T04:34:19;5.67;;;3.90;;
2598;SDS011;1309;48.810;8.954;2023-04-25T04:36:48;7.53;;;4.03;;
2598;SDS011;1309;48.810;8.954;2023-04-25T04:39:19;7.07;;;3.80;;
2598;SDS011;1309;48.810;8.954;2023-04-25T04:41:47;6.20;;;3.87;;
2598;SDS011;1309;48.810;8.954;2023-04-25T04:44:17;6.37;;;4.30;;
2598;SDS011;1309;48.810;8.954;2023-04-25T04:46:46;8.37;;;4.03;;
2598;SDS011;1309;48.810;8.954;2023-04-25T04:49:16;5.70;;;3.50;;
2598;SDS011;1309;48.810;8.954;2023-04-25T04:51:45;5.60;;;3.30;;
2598;SDS011;1309;48.810;8.954;2023-04-25T04:54:22;6.77;;;4.10;;
2598;SDS011;1309;48.810;8.954;2023-04-25T04:56:55;6.27;;;3.93;;
2598;SDS011;1309;48.810;8.954;2023-04-25T04:59:23;6.40;;;3.33;;
2598;SDS011;1309;48.810;8.954;2023-04-25T05:01:52;7.77;;;5.23;;
2598;SDS011;1309;48.810;8.954;2023-04-25T05:04:22;5.83;;;3.70;;
2598;SDS011;1309;48.810;8.954;2023-04-25T05:06:55;6.10;;;3.83;;
2598;SDS011;1309;48.810;8.954;2023-04-25T05:09:26;4.93;;;3.30;;
2598;SDS011;1309;48.810;8.954;2023-04-25T05:11:54;5.63;;;3.37;;
2598;SDS011;1309;48.810;8.954;2023-04-25T05:14:22;3.80;;;2.67;;
2598;SDS011;1309;48.810;8.954;2023-04-25T05:16:51;4.00;;;2.40;;
2598;SDS011;1309;48.810;8.954;2023-04-25T05:19:19;5.50;;;3.50;;
2598;SDS011;1309;48.810;8.954;2023-04-25T05:21:49;5.07;;;2.90;;
2598;SDS011;1309;48.810;8.954;2023-04-25T05:24:17;6.23;;;3.30;;
2598;SDS011;1309;48.810;8.954;2023-04-25T05:26:45;5.63;;;2.90;;
2598;SDS011;1309;48.810;8.954;2023-04-25T05:29:14;6.60;;;3.30;;
2598;SDS011;1309;48.810;8.954;2023-04-25T05:31:45;5.90;;;3.43;;
2598;SDS011;1309;48.810;8.954;2023-04-25T05:34:15;4.33;;;3.00;;
2598;SDS011;1309;48.810;8.954;2023-04-25T05:36:43;5.20;;;3.37;;
2598;SDS011;1309;48.810;8.954;2023-04-25T05:39:16;6.63;;;3.43;;
2598;SDS011;1309;48.810;8.954;2023-04-25T05:41:44;4.90;;;2.87;;
2598;SDS011;1309;48.810;8.954;2023-04-25T05:44:14;5.37;;;3.73;;
2598;SDS011;1309;48.810;8.954;2023-04-25T05:46:43;5.57;;;3.60;;
2598;SDS011;1309;48.810;8.954;2023-04-25T05:49:18;6.00;;;3.37;;
2598;SDS011;1309;48.810;8.954;2023-04-25T05:51:46;8.00;;;2.90;;
2598;SDS011;1309;48.810;8.954;2023-04-25T05:54:16;9.53;;;4.30;;
2598;SDS011;1309;48.810;8.954;2023-04-25T05:56:46;3.50;;;2.80;;
2598;SDS011;1309;48.810;8.954;2023-04-25T05:59:15;6.60;;;3.33;;
2598;SDS011;1309;48.810;8.954;2023-04-25T06:01:43;5.30;;;3.10;;
2598;SDS011;1309;48.810;8.954;2023-04-25T06:04:15;6.00;;;3.87;;
2598;SDS011;1309;48.810;8.954;2023-04-25T06:06:48;4.93;;;2.90;;
2598;SDS011;1309;48.810;8.954;2023-04-25T06:09:17;7.13;;;3.93;;
2598;SDS011;1309;48.810;8.954;2023-04-25T06:11:50;7.47;;;3.77;;
2598;SDS011;1309;48.810;8.954;2023-04-25T06:14:22;5.37;;;2.63;;
2598;SDS011;1309;48.810;8.954;2023-04-25T06:16:55;6.40;;;4.33;;
2598;SDS011;1309;48.810;8.954;2023-04-25T06:19:46;3.67;;;3.10;;
2598;SDS011;1309;48.810;8.954;2023-04-25T06:22:18;5.10;;;3.20;;
2598;SDS011;1309;48.810;8.954;2023-04-25T06:24:49;5.70;;;3.17;;
2598;SDS011;1309;48.810;8.954;2023-04-25T06:27:19;4.10;;;2.80;;
2598;SDS011;1309;48.810;8.954;2023-04-25T06:29:47;4.30;;;2.83;;
2598;SDS011;1309;48.810;8.954;2023-04-25T06:32:18;4.60;;;3.23;;
2598;SDS011;1309;48.810;8.954;2023-04-25T06:34:48;6.10;;;4.03;;
2598;SDS011;1309;48.810;8.954;2023-04-25T06:37:24;4.60;;;3.10;;
2598;SDS011;1309;48.810;8.954;2023-04-25T06:39:56;4.77;;;3.00;;
2598;SDS011;1309;48.810;8.954;2023-04-25T06:42:24;4.20;;;2.97;;
2598;SDS011;1309;48.810;8.954;2023-04-25T06:44:53;8.30;;;3.40;;
2598;SDS011;1309;48.810;8.954;2023-04-25T06:47:22;5.03;;;3.27;;
2598;SDS011;1309;48.810;8.954;2023-04-25T06:49:50;4.40;;;2.73;;
2598;SDS011;1309;48.810;8.954;2023-04-25T06:52:19;5.27;;;3.00;;
2598;SDS011;1309;48.810;8.954;2023-04-25T06:54:49;6.43;;;3.13;;
2598;SDS011;1309;48.810;8.954;2023-04-25T06:57:20;4.67;;;2.43;;
2598;SDS011;1309;48.810;8.954;2023-04-25T06:59:48;6.23;;;3.57;;
2598;SDS011;1309;48.810;8.954;2023-04-25T07:02:25;4.73;;;2.73;;
2598;SDS011;1309;48.810;8.954;2023-04-25T07:04:56;7.77;;;3.47;;
2598;SDS011;1309;48.810;8.954;2023-04-25T07:07:29;8.47;;;2.87;;
2598;SDS011;1309;48.810;8.954;2023-04-25T07:10:02;7.73;;;5.60;;
2598;SDS011;1309;48.810;8.954;2023-04-25T07:12:37;7.30;;;4.40;;
2598;SDS011;1309;48.810;8.954;2023-04-25T07:15:08;6.87;;;4.20;;
2598;SDS011;1309;48.810;8.954;2023-04-25T07:17:39;5.73;;;4.30;;
2598;SDS011;1309;48.810;8.954;2023-04-25T07:20:11;4.90;;;2.73;;
2598;SDS011;1309;48.810;8.954;2023-04-25T07:22:43;6.70;;;3.97;;
2598;SDS011;1309;48.810;8.954;2023-04-25T07:25:11;5.50;;;3.20;;
2598;SDS011;1309;48.810;8.954;2023-04-25T07:27:46;5.53;;;3.83;;
2598;SDS011;1309;48.810;8.954;2023-04-25T07:30:14;5.37;;;3.50;;
2598;SDS011;1309;48.810;8.954;2023-04-25T07:32:43;6.77;;;4.10;;
2598;SDS011;1309;48.810;8.954;2023-04-25T07:35:14;6.70;;;3.87;;
2598;SDS011;1309;48.810;8.954;2023-04-25T07:37:44;7.73;;;3.50;;
2598;SDS011;1309;48.810;8.954;2023-04-25T07:40:16;5.30;;;3.60;;
2598;SDS011;1309;48.810;8.954;2023-04-25T07:42:45;7.03;;;3.87;;
2598;SDS011;1309;48.810;8.954;2023-04-25T07:45:16;4.93;;;3.10;;
2598;SDS011;1309;48.810;8.954;2023-04-25T07:47:44;4.00;;;2.90;;
2598;SDS011;1309;48.810;8.954;2023-04-25T07:50:13;5.13;;;3.50;;
2598;SDS011;1309;48.810;8.954;2023-04-25T07:52:44;7.07;;;3.80;;
2598;SDS011;1309;48.810;8.954;2023-04-25T07:55:12;5.47;;;3.50;;
2598;SDS011;1309;48.810;8.954;2023-04-25T07:57:43;5.47;;;3.50;;
2598;SDS011;1309;48.810;8.954;2023-04-25T08:00:14;4.67;;;2.60;;
2598;SDS011;1309;48.810;8.954;2023-04-25T08:02:42;4.80;;;2.80;;
2598;SDS011;1309;48.810;8.954;2023-04-25T08:05:13;4.77;;;2.80;;
2598;SDS011;1309;48.810;8.954;2023-04-25T08:07:46;4.67;;;3.17;;
2598;SDS011;1309;48.810;8.954;2023-04-25T08:10:15;5.47;;;3.07;;
2598;SDS011;1309;48.810;8.954;2023-04-25T08:12:44;4.90;;;3.07;;
2598;SDS011;1309;48.810;8.954;2023-04-25T08:15:14;5.37;;;2.83;;
2598;SDS011;1309;48.810;8.954;2023-04-25T08:17:47;4.27;;;2.73;;
2598;SDS011;1309;48.810;8.954;2023-04-25T08:20:17;6.90;;;3.63;;
2598;SDS011;1309;48.810;8.954;2023-04-25T08:22:45;5.27;;;3.37;;
2598;SDS011;1309;48.810;8.954;2023-04-25T08:25:15;7.77;;;3.43;;
2598;SDS011;1309;48.810;8.954;2023-04-25T08:27:45;5.17;;;3.73;;
2598;SDS011;1309;48.810;8.954;2023-04-25T08:30:15;9.13;;;3.13;;
2598;SDS011;1309;48.810;8.954;2023-04-25T08:32:53;5.40;;;3.27;;
2598;SDS011;1309;48.810;8.954;2023-04-25T08:35:26;6.13;;;3.30;;
2598;SDS011;1309;48.810;8.954;2023-04-25T08:38:05;6.97;;;4.43;;
2598;SDS011;1309;48.810;8.954;2023-04-25T08:40:37;6.10;;;3.40;;
2598;SDS011;1309;48.810;8.954;2023-04-25T08:43:06;7.30;;;3.93;;
2598;SDS011;1309;48.810;8.954;2023-04-25T08:45:40;5.60;;;3.40;;
2598;SDS011;1309;48.810;8.954;2023-04-25T08:48:13;8.50;;;3.40;;
2598;SDS011;1309;48.810;8.954;2023-04-25T08:50:43;6.70;;;3.27;;
2598;SDS011;1309;48.810;8.954;2023-04-25T08:53:15;6.77;;;4.20;;
2598;SDS011;1309;48.810;8.954;2023-04-25T08:55:46;7.53;;;3.83;;
2598;SDS011;1309;48.810;8.954;2023-04-25T08:58:17;8.00;;;3.97;;
2598;SDS011;1309;48.810;8.954;2023-04-25T09:00:48;8.37;;;4.20;;
2598;SDS011;1309;48.810;8.954;2023-04-25T09:03:16;4.70;;;3.30;;
2598;SDS011;1309;48.810;8.954;2023-04-25T09:05:49;6.67;;;3.53;;
2598;SDS011;1309;48.810;8.954;2023-04-25T09:08:20;6.47;;;3.80;;
2598;SDS011;1309;48.810;8.954;2023-04-25T09:10:49;5.00;;;3.37;;
2598;SDS011;1309;48.810;8.954;2023-04-25T09:13:24;5.90;;;3.90;;
2598;SDS011;1309;48.810;8.954;2023-04-25T09:16:06;5.20;;;3.20;;
2598;SDS011;1309;48.810;8.954;2023-04-25T09:18:48;8.50;;;4.27;;
2598;SDS011;1309;48.810;8.954;2023-04-25T09:21:21;6.87;;;3.00;;
2598;SDS011;1309;48.810;8.954;2023-04-25T09:23:50;5.73;;;3.00;;
2598;SDS011;1309;48.810;8.954;2023-04-25T09:26:20;3.33;;;2.43;;
2598;SDS011;1309;48.810;8.954;2023-04-25T09:28:57;3.60;;;1.90;;
2598;SDS011;1309;48.810;8.954;2023-04-25T09:31:37;3.83;;;1.67;;
2598;SDS011;1309;48.810;8.954;2023-04-25T09:34:08;4.00;;;1.93;;
2598;SDS011;1309;48.810;8.954;2023-04-25T09:36:38;3.97;;;2.00;;
2598;SDS011;1309;48.810;8.954;2023-04-25T09:39:14;3.07;;;1.70;;
2598;SDS011;1309;48.810;8.954;2023-04-25T09:41:45;3.10;;;1.67;;
2598;SDS011;1309;48.810;8.954;2023-04-25T09:44:13;2.73;;;1.80;;
2598;SDS011;1309;48.810;8.954;2023-04-25T09:46:43;2.67;;;1.47;;
2598;SDS011;1309;48.810;8.954;2023-04-25T09:49:12;4.43;;;1.80;;
2598;SDS011;1309;48.810;8.954;2023-04-25T09:51:53;2.70;;;1.40;;
2598;SDS011;1309;48.810;8.954;2023-04-25T09:54:25;3.60;;;2.00;;
2598;SDS011;1309;48.810;8.954;2023-04-25T09:56:53;3.93;;;1.83;;
2598;SDS011;1309;48.810;8.954;2023-04-25T09:59:23;2.87;;;1.80;;
2598;SDS011;1309;48.810;8.954;2023-04-25T10:01:59;3.97;;;1.77;;
2598;SDS011;1309;48.810;8.954;2023-04-25T10:04:27;3.53;;;1.30;;
2598;SDS011;1309;48.810;8.954;2023-04-25T10:06:59;2.33;;;1.40;;
2598;SDS011;1309;48.810;8.954;2023-04-25T10:09:28;2.57;;;1.50;;
2598;SDS011;1309;48.810;8.954;2023-04-25T10:11:58;2.30;;;1.30;;
2598;SDS011;1309;48.810;8.954;2023-04-25T10:14:29;2.47;;;1.03;;
2598;SDS011;1309;48.810;8.954;2023-04-25T10:16:59;2.37;;;1.30;;
2598;SDS011;1309;48.810;8.954;2023-04-25T10:19:28;2.57;;;1.30;;
2598;SDS011;1309;48.810;8.954;2023-04-25T10:22:03;2.43;;;1.20;;
2598;SDS011;1309;48.810;8.954;2023-04-25T10:24:35;2.40;;;1.20;;
2598;SDS011;1309;48.810;8.954;2023-04-25T10:27:13;3.07;;;1.20;;
2598;SDS011;1309;48.810;8.954;2023-04-25T10:29:42;3.50;;;1.73;;
2598;SDS011;1309;48.810;8.954;2023-04-25T10:32:17;2.03;;;1.00;;
2598;SDS011;1309;48.810;8.954;2023-04-25T10:34:47;3.10;;;2.20;;
2598;SDS011;1309;48.810;8.954;2023-04-25T10:37:16;4.30;;;2.97;;
2598;SDS011;1309;48.810;8.954;2023-04-25T10:39:46;6.80;;;3.33;;
2598;SDS011;1309;48.810;8.954;2023-04-25T10:42:14;6.10;;;4.03;;
2598;SDS011;1309;48.810;8.954;2023-04-25T10:45:04;5.67;;;3.13;;
2598;SDS011;1309;48.810;8.954;2023-04-25T10:47:35;8.00;;;4.00;;
2598;SDS011;1309;48.810;8.954;2023-04-25T10:50:05;6.33;;;3.60;;
2598;SDS011;1309;48.810;8.954;2023-04-25T10:52:38;4.63;;;3.07;;
2598;SDS011;1309;48.810;8.954;2023-04-25T10:55:07;7.00;;;3.73;;
2598;SDS011;1309;48.810;8.954;2023-04-25T10:57:44;5.80;;;3.47;;
2598;SDS011;1309;48.810;8.954;2023-04-25T11:00:16;5.73;;;3.03;;
2598;SDS011;1309;48.810;8.954;2023-04-25T11:03:03;4.90;;;2.40;;
2598;SDS011;1309;48.810;8.954;2023-04-25T11:05:35;5.30;;;2.53;;
2598;SDS011;1309;48.810;8.954;2023-04-25T11:08:24;3.50;;;2.10;;
2598;SDS011;1309;48.810;8.954;2023-04-25T11:11:01;3.53;;;2.23;;
2598;SDS011;1309;48.810;8.954;2023-04-25T11:13:38;4.33;;;2.27;;
2598;SDS011;1309;48.810;8.954;2023-04-25T11:16:08;4.13;;;2.67;;
2598;SDS011;1309;48.810;8.954;2023-04-25T11:18:56;5.67;;;2.80;;
2598;SDS011;1309;48.810;8.954;2023-04-25T11:21:25;3.53;;;2.50;;
2598;SDS011;1309;48.810;8.954;2023-04-25T11:23:54;5.03;;;3.30;;
2598;SDS011;1309;48.810;8.954;2023-04-25T11:26:26;3.87;;;2.23;;
2598;SDS011;1309;48.810;8.954;2023-04-25T11:29:00;3.40;;;1.90;;
2598;SDS011;1309;48.810;8.954;2023-04-25T11:31:28;3.63;;;2.13;;
2598;SDS011;1309;48.810;8.954;2023-04-25T11:33:58;6.73;;;2.97;;
2598;SDS011;1309;48.810;8.954;2023-04-25T11:36:29;5.50;;;2.93;;
2598;SDS011;1309;48.810;8.954;2023-04-25T11:38:58;4.33;;;2.70;;
2598;SDS011;1309;48.810;8.954;2023-04-25T11:41:26;4.93;;;2.83;;
2598;SDS011;1309;48.810;8.954;2023-04-25T11:44:04;5.27;;;2.67;;
2598;SDS011;1309;48.810;8.954;2023-04-25T11:46:36;4.03;;;2.63;;
2598;SDS011;1309;48.810;8.954;2023-04-25T11:49:06;8.20;;;3.60;;
2598;SDS011;1309;48.810;8.954;2023-04-25T11:51:39;4.60;;;2.97;;
2598;SDS011;1309;48.810;8.954;2023-04-25T11:54:18;7.40;;;4.00;;
2598;SDS011;1309;48.810;8.954;2023-04-25T11:56:49;9.87;;;5.50;;
2598;SDS011;1309;48.810;8.954;2023-04-25T11:59:32;13.23;;;8.60;;
2598;SDS011;1309;48.810;8.954;2023-04-25T12:02:02;7.57;;;4.97;;
2598;SDS011;1309;48.810;8.954;2023-04-25T12:04:31;8.10;;;4.40;;
2598;SDS011;1309;48.810;8.954;2023-04-25T12:07:09;11.30;;;5.17;;
2598;SDS011;1309;48.810;8.954;2023-04-25T12:09:42;11.20;;;5.17;;
2598;SDS011;1309;48.810;8.954;2023-04-25T12:12:13;9.17;;;5.17;;
2598;SDS011;1309;48.810;8.954;2023-04-25T12:14:45;12.63;;;7.50;;
2598;SDS011;1309;48.810;8.954;2023-04-25T12:17:20;9.10;;;5.30;;
2598;SDS011;1309;48.810;8.954;2023-04-25T12:19:52;9.10;;;5.93;;
2598;SDS011;1309;48.810;8.954;2023-04-25T12:22:21;11.93;;;5.27;;
2598;SDS011;1309;48.810;8.954;2023-04-25T12:24:59;9.33;;;4.83;;
2598;SDS011;1309;48.810;8.954;2023-04-25T12:27:35;8.53;;;5.17;;
2598;SDS011;1309;48.810;8.954;2023-04-25T12:30:06;8.00;;;5.70;;
2598;SDS011;1309;48.810;8.954;2023-04-25T12:32:37;8.33;;;5.17;;
2598;SDS011;1309;48.810;8.954;2023-04-25T12:35:10;12.10;;;6.40;;
2598;SDS011;1309;48.810;8.954;2023-04-25T12:37:41;8.30;;;5.27;;
2598;SDS011;1309;48.810;8.954;2023-04-25T12:40:22;9.90;;;5.37;;
2598;SDS011;1309;48.810;8.954;2023-04-25T12:42:50;8.20;;;4.20;;
2598;SDS011;1309;48.810;8.954;2023-04-25T12:45:21;6.97;;;4.93;;
2598;SDS011;1309;48.810;8.954;2023-04-25T12:47:49;7.83;;;5.03;;
2598;SDS011;1309;48.810;8.954;2023-04-25T12:50:22;8.13;;;5.20;;
2598;SDS011;1309;48.810;8.954;2023-04-25T12:52:51;10.77;;;6.07;;
2598;SDS011;1309;48.810;8.954;2023-04-25T12:55:23;8.73;;;5.63;;
2598;SDS011;1309;48.810;8.954;2023-04-25T12:57:51;8.33;;;5.77;;
2598;SDS011;1309;48.810;8.954;2023-04-25T13:00:21;10.07;;;6.70;;
2598;SDS011;1309;48.810;8.954;2023-04-25T13:02:50;13.67;;;6.80;;
2598;SDS011;1309;48.810;8.954;2023-04-25T13:05:23;8.20;;;5.67;;
2598;SDS011;1309;48.810;8.954;2023-04-25T13:07:53;7.80;;;4.67;;
2598;SDS011;1309;48.810;8.954;2023-04-25T13:10:24;11.13;;;6.20;;
2598;SDS011;1309;48.810;8.954;2023-04-25T13:12:56;8.40;;;5.70;;
2598;SDS011;1309;48.810;8.954;2023-04-25T13:15:25;9.53;;;5.90;;
2598;SDS011;1309;48.810;8.954;2023-04-25T13:17:56;7.47;;;5.30;;
2598;SDS011;1309;48.810;8.954;2023-04-25T13:20:40;10.87;;;6.30;;
2598;SDS011;1309;48.810;8.954;2023-04-25T13:23:11;12.10;;;8.10;;
2598;SDS011;1309;48.810;8.954;2023-04-25T13:25:39;11.20;;;6.30;;
2598;SDS011;1309;48.810;8.954;2023-04-25T13:28:13;14.70;;;7.60;;
2598;SDS011;1309;48.810;8.954;2023-04-25T13:30:45;12.57;;;6.57;;
2598;SDS011;1309;48.810;8.954;2023-04-25T13:33:20;12.70;;;7.10;;
2598;SDS011;1309;48.810;8.954;2023-04-25T13:35:50;11.30;;;6.70;;
2598;SDS011;1309;48.810;8.954;2023-04-25T13:38:20;9.37;;;6.00;;
2598;SDS011;1309;48.810;8.954;2023-04-25T13:40:49;11.87;;;6.40;;
2598;SDS011;1309;48.810;8.954;2023-04-25T13:43:20;8.67;;;5.73;;
2598;SDS011;1309;48.810;8.954;2023-04-25T13:45:48;10.00;;;5.40;;
2598;SDS011;1309;48.810;8.954;2023-04-25T13:48:18;11.37;;;8.40;;
2598;SDS011;1309;48.810;8.954;2023-04-25T13:50:50;7.83;;;4.97;;
2598;SDS011;1309;48.810;8.954;2023-04-25T13:53:21;12.03;;;5.47;;
2598;SDS011;1309;48.810;8.954;2023-04-25T13:55:50;9.27;;;5.50;;
2598;SDS011;1309;48.810;8.954;2023-04-25T13:58:21;8.23;;;6.00;;
2598;SDS011;1309;48.810;8.954;2023-04-25T14:00:50;9.93;;;5.77;;
2598;SDS011;1309;48.810;8.954;2023-04-25T14:03:21;7.90;;;4.80;;
2598;SDS011;1309;48.810;8.954;2023-04-25T14:05:51;10.47;;;5.77;;
2598;SDS011;1309;48.810;8.954;2023-04-25T14:08:21;7.83;;;5.03;;
2598;SDS011;1309;48.810;8.954;2023-04-25T14:10:56;9.70;;;4.60;;
2598;SDS011;1309;48.810;8.954;2023-04-25T14:13:29;7.67;;;5.13;;
2598;SDS011;1309;48.810;8.954;2023-04-25T14:16:00;6.40;;;3.77;;
2598;SDS011;1309;48.810;8.954;2023-04-25T14:18:31;6.80;;;4.67;;
2598;SDS011;1309;48.810;8.954;2023-04-25T14:21:04;10.20;;;6.10;;
2598;SDS011;1309;48.810;8.954;2023-04-25T14:23:37;13.73;;;7.10;;
2598;SDS011;1309;48.810;8.954;2023-04-25T14:26:06;12.17;;;6.60;;
2598;SDS011;1309;48.810;8.954;2023-04-25T14:28:39;9.30;;;5.70;;
2598;SDS011;1309;48.810;8.954;2023-04-25T14:31:08;10.17;;;5.30;;
2598;SDS011;1309;48.810;8.954;2023-04-25T14:33:52;7.57;;;3.63;;
2598;SDS011;1309;48.810;8.954;2023-04-25T14:36:26;7.70;;;4.70;;
2598;SDS011;1309;48.810;8.954;2023-04-25T14:38:57;8.47;;;4.40;;
2598;SDS011;1309;48.810;8.954;2023-04-25T14:41:29;7.50;;;4.80;;
2598;SDS011;1309;48.810;8.954;2023-04-25T14:43:57;6.80;;;4.23;;
2598;SDS011;1309;48.810;8.954;2023-04-25T14:46:25;6.93;;;4.87;;
2598;SDS011;1309;48.810;8.954;2023-04-25T14:48:55;7.57;;;4.50;;
2598;SDS011;1309;48.810;8.954;2023-04-25T14:51:24;7.10;;;4.60;;
2598;SDS011;1309;48.810;8.954;2023-04-25T14:53:54;7.90;;;4.87;;
2598;SDS011;1309;48.810;8.954;2023-04-25T14:56:23;8.07;;;6.07;;
2598;SDS011;1309;48.810;8.954;2023-04-25T14:58:51;7.30;;;4.87;;
2598;SDS011;1309;48.810;8.954;2023-04-25T15:01:20;7.80;;;4.60;;
2598;SDS011;1309;48.810;8.954;2023-04-25T15:03:51;7.40;;;4.47;;
2598;SDS011;1309;48.810;8.954;2023-04-25T15:06:21;8.13;;;4.53;;
2598;SDS011;1309;48.810;8.954;2023-04-25T15:08:57;7.50;;;5.50;;
2598;SDS011;1309;48.810;8.954;2023-04-25T15:11:26;7.40;;;4.20;;
2598;SDS011;1309;48.810;8.954;2023-04-25T15:13:54;8.57;;;4.40;;
2598;SDS011;1309;48.810;8.954;2023-04-25T15:16:23;6.03;;;4.03;;
2598;SDS011;1309;48.810;8.954;2023-04-25T15:18:52;6.93;;;4.00;;
2598;SDS011;1309;48.810;8.954;2023-04-25T15:21:22;6.83;;;4.33;;
2598;SDS011;1309;48.810;8.954;2023-04-25T15:24:06;8.03;;;5.00;;
2598;SDS011;1309;48.810;8.954;2023-04-25T15:26:35;9.63;;;4.53;;
2598;SDS011;1309;48.810;8.954;2023-04-25T15:29:03;6.20;;;3.50;;
2598;SDS011;1309;48.810;8.954;2023-04-25T15:31:38;7.00;;;4.10;;
2598;SDS011;1309;48.810;8.954;2023-04-25T15:34:07;8.60;;;4.90;;
2598;SDS011;1309;48.810;8.954;2023-04-25T15:36:35;11.30;;;4.87;;
2598;SDS011;1309;48.810;8.954;2023-04-25T15:39:05;8.10;;;4.37;;